createdAt,value
2022-11-13T00:01:39.085Z,9.30
2022-11-13T00:04:26.867Z,9.30
2022-11-13T00:07:19.118Z,9.30
2022-11-13T00:10:11.697Z,9.20
2022-11-13T00:13:05.231Z,9.20
2022-11-13T00:16:01.640Z,9.20
2022-11-13T00:18:56.656Z,9.20
2022-11-13T00:21:49.346Z,9.20
2022-11-13T00:24:42.135Z,9.20
2022-11-13T00:27:33.211Z,9.20
2022-11-13T00:30:26.052Z,9.20
2022-11-13T00:33:37.836Z,9.20
2022-11-13T00:36:33.363Z,9.10
2022-11-13T00:39:24.160Z,9.10
2022-11-13T00:42:16.289Z,9.10
2022-11-13T00:45:09.658Z,9.10
2022-11-13T00:48:01.980Z,9.10
2022-11-13T00:50:53.988Z,9.10
2022-11-13T00:53:49.525Z,9.00
2022-11-13T00:56:42.170Z,9.00
2022-11-13T00:59:35.100Z,9.00
2022-11-13T01:02:28.259Z,9.00
2022-11-13T01:05:21.207Z,9.00
2022-11-13T01:08:12.135Z,9.00
2022-11-13T01:11:10.463Z,9.00
2022-11-13T01:14:03.048Z,9.00
2022-11-13T01:16:54.916Z,9.20
2022-11-13T01:19:45.957Z,9.00
2022-11-13T01:22:37.059Z,9.10
2022-11-13T01:25:29.077Z,8.90
2022-11-13T01:28:23.980Z,8.90
2022-11-13T01:31:16.967Z,8.90
2022-11-13T01:34:07.997Z,8.90
2022-11-13T01:36:59.703Z,8.90
2022-11-13T01:39:52.242Z,8.90
2022-11-13T01:42:42.959Z,8.80
2022-11-13T01:45:49.971Z,8.90
2022-11-13T01:48:45.445Z,9.30
2022-11-13T01:51:38.679Z,8.80
2022-11-13T01:54:31.628Z,8.80
2022-11-13T01:57:23.991Z,8.80
2022-11-13T02:00:16.837Z,8.80
2022-11-13T02:03:08.980Z,8.80
2022-11-13T02:06:04.210Z,8.80
2022-11-13T02:08:54.977Z,8.70
2022-11-13T02:11:48.764Z,8.70
2022-11-13T02:14:43.764Z,8.70
2022-11-13T02:17:36.561Z,8.70
2022-11-13T02:20:28.755Z,8.70
2022-11-13T02:23:24.195Z,8.70
2022-11-13T02:26:19.173Z,8.60
2022-11-13T02:29:11.026Z,8.60
2022-11-13T02:32:04.341Z,8.60
2022-11-13T02:34:56.894Z,8.60
2022-11-13T02:37:49.311Z,9.20
2022-11-13T02:40:39.975Z,8.60
2022-11-13T02:43:34.542Z,8.50
2022-11-13T02:46:26.881Z,8.50
2022-11-13T02:49:19.231Z,8.50
2022-11-13T02:52:10.095Z,8.50
2022-11-13T02:55:01.919Z,9.20
2022-11-13T02:57:54.158Z,8.40
2022-11-13T03:00:50.207Z,8.40
2022-11-13T03:03:58.763Z,8.30
2022-11-13T03:06:51.194Z,8.30
2022-11-13T03:09:44.111Z,8.30
2022-11-13T03:12:35.705Z,8.30
2022-11-13T03:15:27.930Z,8.20
2022-11-13T03:18:21.973Z,8.20
2022-11-13T03:21:14.650Z,8.20
2022-11-13T03:24:07.809Z,8.20
2022-11-13T03:26:59.890Z,8.20
2022-11-13T03:29:52.262Z,8.20
2022-11-13T03:32:45.049Z,9.00
2022-11-13T03:35:46.515Z,8.20
2022-11-13T03:38:40.211Z,8.20
2022-11-13T03:41:32.090Z,8.30
2022-11-13T03:44:25.327Z,8.30
2022-11-13T03:47:16.249Z,8.30
2022-11-13T03:50:09.400Z,9.00
2022-11-13T03:53:05.411Z,8.30
2022-11-13T03:55:58.027Z,8.30
2022-11-13T03:58:49.831Z,8.40
2022-11-13T04:01:42.065Z,8.40
2022-11-13T04:04:34.105Z,8.40
2022-11-13T04:07:26.971Z,8.40
2022-11-13T04:10:22.275Z,8.50
2022-11-13T04:13:14.188Z,8.40
2022-11-13T04:16:05.281Z,8.40
2022-11-13T04:18:56.104Z,8.50
2022-11-13T04:21:47.037Z,8.50
2022-11-13T04:24:38.036Z,9.00
2022-11-13T04:27:33.017Z,8.50
2022-11-13T04:30:24.201Z,8.50
2022-11-13T04:33:16.117Z,8.50
2022-11-13T04:36:07.344Z,8.50
2022-11-13T04:38:58.089Z,8.50
2022-11-13T04:42:03.440Z,8.40
2022-11-13T04:44:58.985Z,8.40
2022-11-13T04:47:51.092Z,8.40
2022-11-13T04:50:42.054Z,8.40
2022-11-13T04:53:34.936Z,9.00
2022-11-13T04:56:27.073Z,8.40
2022-11-13T04:59:19.186Z,8.40
2022-11-13T05:02:15.502Z,9.00
2022-11-13T05:05:08.346Z,8.30
2022-11-13T05:08:01.011Z,8.40
2022-11-13T05:10:49.858Z,8.40
2022-11-13T05:13:41.129Z,8.40
2022-11-13T05:16:32.174Z,8.40
2022-11-13T05:19:25.785Z,8.40
2022-11-13T05:22:14.917Z,8.40
2022-11-13T05:25:07.177Z,8.40
2022-11-13T05:28:00.516Z,8.40
2022-11-13T05:30:53.063Z,9.20
2022-11-13T05:33:46.356Z,8.40
2022-11-13T05:36:42.377Z,8.40
2022-11-13T05:39:35.020Z,8.40
2022-11-13T05:42:27.145Z,8.40
2022-11-13T05:45:19.053Z,9.10
2022-11-13T05:48:11.227Z,8.40
2022-11-13T05:51:05.294Z,8.40
2022-11-13T05:54:01.091Z,8.40
2022-11-13T05:56:52.936Z,8.30
2022-11-13T05:59:44.980Z,8.30
2022-11-13T06:02:37.863Z,8.30
2022-11-13T06:05:29.965Z,8.30
2022-11-13T06:08:21.914Z,8.90
2022-11-13T06:11:17.237Z,9.10
2022-11-13T06:14:10.031Z,8.30
2022-11-13T06:17:01.120Z,8.30
2022-11-13T06:19:52.102Z,8.20
2022-11-13T06:22:45.147Z,8.20
2022-11-13T06:25:37.704Z,8.20
2022-11-13T06:28:34.384Z,8.20
2022-11-13T06:31:28.081Z,8.20
2022-11-13T06:34:22.750Z,8.20
2022-11-13T06:37:18.005Z,8.20
2022-11-13T06:40:12.746Z,8.20
2022-11-13T06:43:07.369Z,8.20
2022-11-13T06:46:05.942Z,9.00
2022-11-13T06:48:59.983Z,8.20
2022-11-13T06:51:54.195Z,8.20
2022-11-13T06:54:48.322Z,8.20
2022-11-13T06:57:41.786Z,8.20
2022-11-13T07:00:38.192Z,8.20
2022-11-13T07:03:36.653Z,8.20
2022-11-13T07:06:29.593Z,9.00
2022-11-13T07:09:22.962Z,8.20
2022-11-13T07:12:17.132Z,8.20
2022-11-13T07:15:09.961Z,8.30
2022-11-13T07:18:03.255Z,8.20
2022-11-13T07:20:59.132Z,8.20
2022-11-13T07:23:52.162Z,8.20
2022-11-13T07:26:44.376Z,8.20
2022-11-13T07:29:36.645Z,8.10
2022-11-13T07:32:30.111Z,8.10
2022-11-13T07:35:27.170Z,8.10
2022-11-13T07:38:23.748Z,8.10
2022-11-13T07:41:17.044Z,8.10
2022-11-13T07:44:21.920Z,8.60
2022-11-13T07:47:25.895Z,8.00
2022-11-13T07:50:19.284Z,8.00
2022-11-13T07:53:14.115Z,8.10
2022-11-13T07:56:11.325Z,8.10
2022-11-13T07:59:04.696Z,8.10
2022-11-13T08:01:57.555Z,9.00
2022-11-13T08:04:50.949Z,8.10
2022-11-13T08:07:43.520Z,8.10
2022-11-13T08:10:42.434Z,8.10
2022-11-13T08:13:38.753Z,8.10
2022-11-13T08:16:34.040Z,8.20
2022-11-13T08:19:26.516Z,8.20
2022-11-13T08:22:19.796Z,8.20
2022-11-13T08:25:12.851Z,8.20
2022-11-13T08:28:10.149Z,9.10
2022-11-13T08:31:08.556Z,8.30
2022-11-13T08:34:03.758Z,8.30
2022-11-13T08:36:57.044Z,8.30
2022-11-13T08:39:52.272Z,8.40
2022-11-13T08:42:47.837Z,8.40
2022-11-13T08:45:43.974Z,8.50
2022-11-13T08:48:40.815Z,9.20
2022-11-13T08:51:34.692Z,8.50
2022-11-13T08:54:27.776Z,8.60
2022-11-13T08:57:21.447Z,9.20
2022-11-13T09:00:13.858Z,8.60
2022-11-13T09:03:09.464Z,8.60
2022-11-13T09:06:06.573Z,9.10
2022-11-13T09:09:01.732Z,8.60
2022-11-13T09:11:55.175Z,8.60
2022-11-13T09:14:48.486Z,8.70
2022-11-13T09:17:42.600Z,8.70
2022-11-13T09:20:36.723Z,8.80
2022-11-13T09:23:32.912Z,8.80
2022-11-13T09:26:27.182Z,8.90
2022-11-13T09:29:23.637Z,9.20
2022-11-13T09:32:18.906Z,9.00
2022-11-13T09:35:12.903Z,9.10
2022-11-13T09:38:11.202Z,9.10
2022-11-13T09:41:08.283Z,9.20
2022-11-13T09:44:04.916Z,9.20
2022-11-13T09:46:57.728Z,9.20
2022-11-13T09:49:53.114Z,9.20
2022-11-13T09:52:46.979Z,9.30
2022-11-13T09:55:42.079Z,9.20
2022-11-13T09:58:42.864Z,9.30
2022-11-13T10:01:38.164Z,9.20
2022-11-13T10:04:34.790Z,9.30
2022-11-13T10:07:30.545Z,9.30
2022-11-13T10:10:28.077Z,9.30
2022-11-13T10:13:22.943Z,9.30
2022-11-13T10:16:20.923Z,9.20
2022-11-13T10:19:13.541Z,9.20
2022-11-13T10:22:31.726Z,9.20
2022-11-13T10:25:19.948Z,9.20
2022-11-13T10:28:48.768Z,9.20
2022-11-13T10:31:41.503Z,9.20
2022-11-13T10:34:34.423Z,9.30
2022-11-13T10:37:30.688Z,9.10
2022-11-13T10:40:27.113Z,9.00
2022-11-13T10:43:19.049Z,9.00
2022-11-13T10:46:19.914Z,9.00
2022-11-13T10:49:21.356Z,9.00
2022-11-13T10:52:19.723Z,8.90
2022-11-13T10:55:20.411Z,8.90
2022-11-13T10:58:16.736Z,8.90
2022-11-13T11:01:17.041Z,8.90
2022-11-13T11:04:11.133Z,8.90
2022-11-13T11:07:20.054Z,8.90
2022-11-13T11:10:22.860Z,9.00
2022-11-13T11:13:12.019Z,9.00
2022-11-13T11:16:05.023Z,9.00
2022-11-13T11:18:58.261Z,9.00
2022-11-13T11:21:50.794Z,9.00
2022-11-13T11:24:47.108Z,8.90
2022-11-13T11:27:39.674Z,8.90
2022-11-13T11:30:35.553Z,8.80
2022-11-13T11:33:31.830Z,8.90
2022-11-13T11:36:26.551Z,8.80
2022-11-13T11:39:28.433Z,8.70
2022-11-13T11:42:26.344Z,8.70
2022-11-13T11:45:22.030Z,8.70
2022-11-13T11:48:16.130Z,8.70
2022-11-13T11:51:10.537Z,8.80
2022-11-13T11:54:12.169Z,9.40
2022-11-13T11:57:08.909Z,8.90
2022-11-13T12:00:04.063Z,8.90
2022-11-13T12:03:05.576Z,8.90
2022-11-13T12:06:01.491Z,9.00
2022-11-13T12:08:55.933Z,8.90
2022-11-13T12:11:50.435Z,8.80
2022-11-13T12:14:45.119Z,8.80
2022-11-13T12:17:42.751Z,8.80
2022-11-13T12:20:40.321Z,8.70
2022-11-13T12:23:35.871Z,8.70
2022-11-13T12:26:32.849Z,8.70
2022-11-13T12:29:32.407Z,9.10
2022-11-13T12:32:29.396Z,8.70
2022-11-13T12:35:23.777Z,8.70
2022-11-13T12:38:20.791Z,8.70
2022-11-13T12:41:17.481Z,8.70
2022-11-13T12:44:23.055Z,8.60
2022-11-13T12:47:19.161Z,8.50
2022-11-13T12:50:28.768Z,8.50
2022-11-13T12:53:28.520Z,8.50
2022-11-13T12:56:34.004Z,8.40
2022-11-13T12:59:34.974Z,8.40
2022-11-13T13:02:48.261Z,8.30
2022-11-13T13:05:51.483Z,8.30
2022-11-13T13:08:48.644Z,8.30
2022-11-13T13:11:46.531Z,8.40
2022-11-13T13:14:44.982Z,8.40
2022-11-13T13:17:37.581Z,9.10
2022-11-13T13:20:34.708Z,9.10
2022-11-13T13:23:29.611Z,8.30
2022-11-13T13:26:24.039Z,8.30
2022-11-13T13:29:21.372Z,8.20
2022-11-13T13:32:20.796Z,8.20
2022-11-13T13:35:15.370Z,8.20
2022-11-13T13:38:09.801Z,8.10
2022-11-13T13:41:05.242Z,8.10
2022-11-13T13:44:00.994Z,8.00
2022-11-13T13:46:56.333Z,8.00
2022-11-13T13:49:50.570Z,8.00
2022-11-13T13:52:44.070Z,8.00
2022-11-13T13:55:36.835Z,8.10
2022-11-13T13:58:31.697Z,8.20
2022-11-13T14:01:32.759Z,8.20
2022-11-13T14:04:28.687Z,8.20
2022-11-13T14:07:24.648Z,8.30
2022-11-13T14:10:18.821Z,8.40
2022-11-13T14:13:17.268Z,8.40
2022-11-13T14:16:09.935Z,8.40
2022-11-13T14:19:05.816Z,9.00
2022-11-13T14:22:02.251Z,8.30
2022-11-13T14:24:58.699Z,8.30
2022-11-13T14:27:52.899Z,8.30
2022-11-13T14:30:45.950Z,8.20
2022-11-13T14:33:39.245Z,8.20
2022-11-13T14:36:35.628Z,8.20
2022-11-13T14:39:31.800Z,8.20
2022-11-13T14:42:26.077Z,8.10
2022-11-13T14:45:19.128Z,8.10
2022-11-13T14:48:21.642Z,8.10
2022-11-13T14:51:24.593Z,8.10
2022-11-13T14:54:53.341Z,8.00
2022-11-13T14:57:54.540Z,8.00
2022-11-13T15:00:50.624Z,8.00
2022-11-13T15:03:45.849Z,7.90
2022-11-13T15:06:40.423Z,7.90
2022-11-13T15:09:35.125Z,7.90
2022-11-13T15:12:29.474Z,7.80
2022-11-13T15:15:26.942Z,7.80
2022-11-13T15:18:23.235Z,7.80
2022-11-13T15:21:15.217Z,7.70
2022-11-13T15:24:06.262Z,7.70
2022-11-13T15:26:58.310Z,7.60
2022-11-13T15:29:51.459Z,7.60
2022-11-13T15:32:47.043Z,7.50
2022-11-13T15:35:39.263Z,7.50
2022-11-13T15:38:31.307Z,7.50
2022-11-13T15:41:23.713Z,7.40
2022-11-13T15:44:16.022Z,7.40
2022-11-13T15:47:11.799Z,7.40
2022-11-13T15:50:15.770Z,7.40
2022-11-13T15:53:07.230Z,7.30
2022-11-13T15:56:03.112Z,7.50
2022-11-13T15:58:54.408Z,7.30
2022-11-13T16:01:45.311Z,7.20
2022-11-13T16:04:55.431Z,7.20
2022-11-13T16:07:51.809Z,7.20
2022-11-13T16:10:46.395Z,7.20
2022-11-13T16:13:39.816Z,7.20
2022-11-13T16:16:38.181Z,7.10
2022-11-13T16:19:32.278Z,7.10
2022-11-13T16:22:28.096Z,7.10
2022-11-13T16:25:23.414Z,7.10
2022-11-13T16:28:18.460Z,7.10
2022-11-13T16:31:12.314Z,7.00
2022-11-13T16:34:04.292Z,7.00
2022-11-13T16:36:58.205Z,7.00
2022-11-13T16:39:51.973Z,6.90
2022-11-13T16:42:48.991Z,6.90
2022-11-13T16:45:42.385Z,6.90
2022-11-13T16:48:35.790Z,6.80
2022-11-13T16:51:29.720Z,6.90
2022-11-13T16:54:22.428Z,6.80
2022-11-13T16:57:14.080Z,6.80
2022-11-13T17:00:12.524Z,6.80
2022-11-13T17:03:08.710Z,6.80
2022-11-13T17:06:04.600Z,6.70
2022-11-13T17:08:59.274Z,6.80
2022-11-13T17:11:51.016Z,6.70
2022-11-13T17:14:44.004Z,6.70
2022-11-13T17:17:39.800Z,6.70
2022-11-13T17:20:30.259Z,6.70
2022-11-13T17:23:22.675Z,6.60
2022-11-13T17:26:13.582Z,6.60
2022-11-13T17:29:06.830Z,6.60
2022-11-13T17:31:57.538Z,6.60
2022-11-13T17:34:51.279Z,6.60
2022-11-13T17:37:41.691Z,6.50
2022-11-13T17:40:32.993Z,6.50
2022-11-13T17:43:25.647Z,6.50
2022-11-13T17:46:19.711Z,6.50
2022-11-13T17:49:10.756Z,6.50
2022-11-13T17:52:06.729Z,6.70
2022-11-13T17:54:57.730Z,6.40
2022-11-13T17:57:50.700Z,6.40
2022-11-13T18:00:42.403Z,6.40
2022-11-13T18:03:33.443Z,6.30
2022-11-13T18:06:26.551Z,6.30
2022-11-13T18:09:22.157Z,6.30
2022-11-13T18:12:15.453Z,6.20
2022-11-13T18:15:09.180Z,6.20
2022-11-13T18:18:02.954Z,6.20
2022-11-13T18:20:57.399Z,6.10
2022-11-13T18:23:51.902Z,6.20
2022-11-13T18:26:45.093Z,6.10
2022-11-13T18:29:41.640Z,6.10
2022-11-13T18:32:36.123Z,6.10
2022-11-13T18:35:29.193Z,6.10
2022-11-13T18:38:22.688Z,6.10
2022-11-13T18:41:17.601Z,6.00
2022-11-13T18:44:11.387Z,6.00
2022-11-13T18:47:10.852Z,6.00
2022-11-13T18:50:04.375Z,5.90
2022-11-13T18:52:57.188Z,5.90
2022-11-13T18:55:54.000Z,5.90
2022-11-13T18:58:49.428Z,5.90
2022-11-13T19:01:52.088Z,5.80
2022-11-13T19:04:52.558Z,5.80
2022-11-13T19:07:45.674Z,5.80
2022-11-13T19:10:44.375Z,5.80
2022-11-13T19:13:41.833Z,5.80
2022-11-13T19:16:39.595Z,5.80
2022-11-13T19:19:32.412Z,5.80
2022-11-13T19:22:32.543Z,5.80
2022-11-13T19:25:26.284Z,5.80
2022-11-13T19:28:20.170Z,5.70
2022-11-13T19:31:13.968Z,5.70
2022-11-13T19:34:07.386Z,5.70
2022-11-13T19:37:00.306Z,5.70
2022-11-13T19:39:55.105Z,5.70
2022-11-13T19:42:47.502Z,5.60
2022-11-13T19:45:39.104Z,5.60
2022-11-13T19:48:32.330Z,5.50
2022-11-13T19:51:24.963Z,5.50
2022-11-13T19:56:55.700Z,5.50
2022-11-13T19:59:44.514Z,5.40
2022-11-13T20:02:33.603Z,5.40
2022-11-13T20:05:22.790Z,5.40
2022-11-13T20:08:13.969Z,5.40
2022-11-13T20:11:06.406Z,5.30
2022-11-13T20:13:58.392Z,5.30
2022-11-13T20:16:47.912Z,5.30
2022-11-13T20:19:39.250Z,5.30
2022-11-13T20:22:32.324Z,5.20
2022-11-13T20:25:23.900Z,5.20
2022-11-13T20:28:18.336Z,5.20
2022-11-13T20:31:16.630Z,5.20
2022-11-13T20:34:17.591Z,5.20
2022-11-13T20:37:12.748Z,5.10
2022-11-13T20:40:08.703Z,5.10
2022-11-13T20:43:03.349Z,5.00
2022-11-13T20:46:05.136Z,5.10
2022-11-13T20:49:01.343Z,5.00
2022-11-13T20:51:56.981Z,5.00
2022-11-13T20:54:50.834Z,5.00
2022-11-13T20:57:43.342Z,4.90
2022-11-13T21:00:36.815Z,5.00
2022-11-13T21:03:30.729Z,4.90
2022-11-13T21:06:28.423Z,4.90
2022-11-13T21:09:23.596Z,4.90
2022-11-13T21:12:16.823Z,4.80
2022-11-13T21:15:12.581Z,4.80
2022-11-13T21:18:09.148Z,4.80
2022-11-13T21:21:12.719Z,4.80
2022-11-13T21:24:09.535Z,4.70
2022-11-13T21:27:07.101Z,4.70
2022-11-13T21:30:00.594Z,4.60
2022-11-13T21:32:56.949Z,4.60
2022-11-13T21:35:49.646Z,4.50
2022-11-13T21:38:45.475Z,4.40
2022-11-13T21:41:41.716Z,4.40
2022-11-13T21:44:39.108Z,4.30
2022-11-13T21:47:32.171Z,4.30
2022-11-13T21:50:27.733Z,4.30
2022-11-13T21:53:27.009Z,4.20
2022-11-13T21:56:20.532Z,4.20
2022-11-13T21:59:19.453Z,4.10
2022-11-13T22:02:17.035Z,4.10
2022-11-13T22:05:12.615Z,4.10
2022-11-13T22:08:05.667Z,4.00
2022-11-13T22:11:02.399Z,4.00
2022-11-13T22:13:56.896Z,3.90
2022-11-13T22:16:50.563Z,3.80
2022-11-13T22:19:47.508Z,3.80
2022-11-13T22:22:44.801Z,3.70
2022-11-13T22:25:38.053Z,3.70
2022-11-13T22:28:31.400Z,3.70
2022-11-13T22:31:24.732Z,3.70
2022-11-13T22:34:18.509Z,3.60
2022-11-13T22:37:12.583Z,3.70
2022-11-13T22:40:06.214Z,3.70
2022-11-13T22:43:05.599Z,3.60
2022-11-13T22:46:00.309Z,3.60
2022-11-13T22:48:55.994Z,3.60
2022-11-13T22:51:50.968Z,3.60
2022-11-13T22:54:47.086Z,3.50
2022-11-13T22:57:42.317Z,3.50
2022-11-13T23:00:38.027Z,3.60
2022-11-13T23:03:31.161Z,3.50
2022-11-13T23:06:26.120Z,3.50
2022-11-13T23:09:18.962Z,3.50
2022-11-13T23:12:16.258Z,3.50
2022-11-13T23:15:09.460Z,3.50
2022-11-13T23:18:07.197Z,3.40
2022-11-13T23:21:03.547Z,3.40
2022-11-13T23:23:58.993Z,3.40
2022-11-13T23:26:55.193Z,3.40
2022-11-13T23:29:52.885Z,3.30
2022-11-13T23:32:45.878Z,3.30
2022-11-13T23:35:39.185Z,3.30
2022-11-13T23:38:32.217Z,3.30
2022-11-13T23:41:24.779Z,3.20
2022-11-13T23:44:18.342Z,3.20
2022-11-13T23:47:16.672Z,3.20
2022-11-13T23:50:10.083Z,3.20
2022-11-13T23:53:05.044Z,3.20
2022-11-13T23:56:00.191Z,3.10
2022-11-13T23:58:55.588Z,3.10
